createdAt,value
2018-05-21T00:01:23.426Z,41.72
2018-05-21T00:03:00.639Z,41.75
2018-05-21T00:04:37.081Z,41.76
2018-05-21T00:06:14.272Z,41.78
2018-05-21T00:07:57.040Z,41.79
2018-05-21T00:09:33.431Z,41.79
2018-05-21T00:11:10.081Z,41.78
2018-05-21T00:12:47.155Z,41.79
2018-05-21T00:14:58.429Z,41.81
2018-05-21T00:16:35.732Z,41.80
2018-05-21T00:18:14.298Z,41.81
2018-05-21T00:19:51.544Z,41.82
2018-05-21T00:21:30.161Z,41.82
2018-05-21T00:23:06.950Z,41.83
2018-05-21T00:24:43.807Z,41.83
2018-05-21T00:26:53.852Z,41.84
2018-05-21T00:28:32.467Z,41.85
2018-05-21T00:30:13.226Z,41.86
2018-05-21T00:31:55.577Z,41.85
2018-05-21T00:33:33.358Z,41.86
2018-05-21T00:35:09.748Z,41.86
2018-05-21T00:36:46.002Z,41.85
2018-05-21T00:38:22.781Z,41.85
2018-05-21T00:39:59.532Z,41.84
2018-05-21T00:41:36.757Z,41.85
2018-05-21T00:43:13.097Z,41.86
2018-05-21T00:44:50.331Z,41.86
2018-05-21T00:46:26.883Z,41.85
2018-05-21T00:48:03.757Z,41.86
2018-05-21T00:49:40.488Z,41.86
2018-05-21T00:51:23.168Z,41.87
2018-05-21T00:53:01.952Z,41.87
2018-05-21T00:54:47.131Z,41.89
2018-05-21T00:56:24.921Z,41.90
2018-05-21T00:58:03.367Z,41.90
2018-05-21T00:59:42.964Z,41.89
2018-05-21T01:01:20.494Z,41.88
2018-05-21T01:02:57.306Z,41.87
2018-05-21T01:04:33.877Z,41.86
2018-05-21T01:06:15.946Z,41.85
2018-05-21T01:07:53.843Z,41.84
2018-05-21T01:09:31.046Z,41.83
2018-05-21T01:11:07.585Z,41.82
2018-05-21T01:12:43.995Z,41.84
2018-05-21T01:14:20.342Z,41.84
2018-05-21T01:15:57.235Z,41.83
2018-05-21T01:17:34.115Z,41.85
2018-05-21T01:19:11.303Z,41.83
2018-05-21T01:20:47.792Z,41.83
2018-05-21T01:22:24.462Z,41.81
2018-05-21T01:24:01.119Z,41.81
2018-05-21T01:25:37.404Z,41.80
2018-05-21T01:27:15.855Z,41.79
2018-05-21T01:28:55.795Z,41.80
2018-05-21T01:30:32.715Z,41.80
2018-05-21T01:32:09.101Z,41.78
2018-05-21T01:33:45.586Z,41.79
2018-05-21T01:35:22.989Z,41.81
2018-05-21T01:37:00.002Z,41.81
2018-05-21T01:38:36.396Z,41.79
2018-05-21T01:40:13.489Z,41.80
2018-05-21T01:44:22.337Z,41.80
2018-05-21T01:45:59.354Z,41.80
2018-05-21T01:47:36.203Z,41.81
2018-05-21T01:49:12.481Z,41.82
2018-05-21T01:50:49.622Z,41.81
2018-05-21T01:52:25.931Z,41.81
2018-05-21T01:54:02.642Z,41.81
2018-05-21T01:55:39.772Z,41.80
2018-05-21T01:57:16.743Z,41.79
2018-05-21T01:58:53.614Z,41.79
2018-05-21T02:00:30.845Z,41.79
2018-05-21T02:02:07.190Z,41.79
2018-05-21T02:03:43.466Z,41.79
2018-05-21T02:05:19.825Z,41.81
2018-05-21T02:06:56.670Z,41.80
2018-05-21T02:08:33.057Z,41.81
2018-05-21T02:10:09.925Z,41.81
2018-05-21T02:11:46.166Z,41.81
2018-05-21T02:13:22.998Z,41.83
2018-05-21T02:14:59.333Z,41.83
2018-05-21T02:16:35.876Z,41.84
2018-05-21T02:18:12.275Z,41.83
2018-05-21T02:19:51.010Z,41.84
2018-05-21T02:21:27.560Z,41.84
2018-05-21T02:23:08.998Z,41.85
2018-05-21T02:24:46.277Z,41.85
2018-05-21T02:26:23.047Z,41.86
2018-05-21T02:27:59.356Z,41.86
2018-05-21T02:29:36.107Z,41.87
2018-05-21T02:31:12.464Z,41.87
2018-05-21T02:32:49.487Z,41.88
2018-05-21T02:34:26.125Z,41.87
2018-05-21T02:36:03.754Z,41.86
2018-05-21T02:37:40.426Z,41.87
2018-05-21T02:39:17.152Z,41.86
2018-05-21T02:40:54.076Z,41.88
2018-05-21T02:42:30.522Z,41.88
2018-05-21T02:44:07.841Z,41.90
2018-05-21T02:45:44.875Z,41.91
2018-05-21T02:47:21.311Z,41.92
2018-05-21T02:48:57.668Z,41.92
2018-05-21T02:50:34.049Z,41.92
2018-05-21T02:52:11.454Z,41.93
2018-05-21T02:53:47.730Z,41.93
2018-05-21T02:55:24.138Z,41.94
2018-05-21T02:57:01.060Z,41.95
2018-05-21T02:58:37.726Z,41.94
2018-05-21T03:00:16.758Z,41.94
2018-05-21T03:01:54.655Z,41.93
2018-05-21T03:03:31.777Z,41.93
2018-05-21T03:05:09.825Z,41.93
2018-05-21T03:06:46.073Z,41.91
2018-05-21T03:08:22.763Z,41.92
2018-05-21T03:10:02.365Z,41.93
2018-05-21T03:11:39.040Z,41.93
2018-05-21T03:13:15.302Z,41.94
2018-05-21T03:14:51.950Z,41.93
2018-05-21T03:16:28.896Z,41.93
2018-05-21T03:18:05.338Z,41.93
2018-05-21T03:19:41.747Z,41.96
2018-05-21T03:21:18.289Z,41.96
2018-05-21T03:22:54.838Z,41.98
2018-05-21T03:24:31.409Z,42.01
2018-05-21T03:26:07.828Z,42.00
2018-05-21T03:27:44.052Z,42.02
2018-05-21T03:29:21.127Z,42.04
2018-05-21T03:30:58.321Z,42.05
2018-05-21T03:32:34.770Z,42.04
2018-05-21T03:34:11.123Z,42.05
2018-05-21T03:35:47.467Z,42.04
2018-05-21T03:37:24.414Z,42.04
2018-05-21T03:39:01.413Z,42.07
2018-05-21T03:40:37.645Z,42.07
2018-05-21T03:42:14.606Z,42.09
2018-05-21T03:43:51.530Z,42.08
2018-05-21T03:45:28.017Z,42.10
2018-05-21T03:47:04.483Z,42.12
2018-05-21T03:48:41.240Z,42.13
2018-05-21T03:50:17.933Z,42.15
2018-05-21T03:51:58.543Z,42.16
2018-05-21T03:53:35.102Z,42.18
2018-05-21T03:55:11.353Z,42.21
2018-05-21T03:56:48.045Z,42.24
2018-05-21T03:58:37.415Z,42.25
2018-05-21T04:01:28.941Z,42.27
2018-05-21T04:03:33.346Z,42.29
2018-05-21T04:05:09.910Z,42.30
2018-05-21T04:06:46.636Z,42.31
2018-05-21T04:08:23.460Z,42.33
2018-05-21T04:09:59.953Z,42.35
2018-05-21T04:11:36.750Z,42.35
2018-05-21T04:13:16.481Z,42.38
2018-05-21T04:14:54.328Z,42.40
2018-05-21T04:16:30.866Z,42.41
2018-05-21T04:18:07.417Z,42.44
2018-05-21T04:19:43.882Z,42.46
2018-05-21T04:21:22.959Z,42.50
2018-05-21T04:23:00.421Z,42.52
2018-05-21T04:24:46.922Z,42.53
2018-05-21T04:26:26.060Z,42.53
2018-05-21T04:28:05.266Z,42.53
2018-05-21T04:29:44.127Z,42.54
2018-05-21T04:31:20.806Z,42.55
2018-05-21T04:32:57.596Z,42.55
2018-05-21T04:34:33.945Z,42.56
2018-05-21T04:36:10.282Z,42.59
2018-05-21T04:37:46.988Z,42.61
2018-05-21T04:39:23.631Z,42.63
2018-05-21T04:41:00.403Z,42.66
2018-05-21T04:42:37.278Z,42.69
2018-05-21T04:44:14.037Z,42.70
2018-05-21T04:45:51.241Z,42.72
2018-05-21T04:47:27.553Z,42.73
2018-05-21T04:49:03.862Z,42.76
2018-05-21T04:50:40.117Z,42.76
2018-05-21T04:52:16.874Z,42.74
2018-05-21T04:53:53.221Z,42.74
2018-05-21T04:55:29.499Z,42.74
2018-05-21T04:57:06.009Z,42.73
2018-05-21T04:58:42.989Z,42.74
2018-05-21T05:00:20.923Z,42.75
2018-05-21T05:01:57.539Z,42.75
2018-05-21T05:03:34.605Z,42.75
2018-05-21T05:05:11.368Z,42.78
2018-05-21T05:06:49.399Z,42.76
2018-05-21T05:08:25.872Z,42.79
2018-05-21T05:10:02.214Z,42.75
2018-05-21T05:11:40.205Z,42.73
2018-05-21T05:13:16.704Z,42.72
2018-05-21T05:14:55.679Z,42.71
2018-05-21T05:16:32.396Z,42.69
2018-05-21T05:18:10.010Z,42.67
2018-05-21T05:19:46.615Z,42.65
2018-05-21T05:21:24.060Z,42.62
2018-05-21T05:23:00.369Z,42.62
2018-05-21T05:24:37.917Z,42.57
2018-05-21T05:26:14.276Z,42.55
2018-05-21T05:27:50.681Z,42.52
2018-05-21T05:29:27.000Z,42.53
2018-05-21T05:31:03.995Z,42.50
2018-05-21T05:32:40.282Z,42.51
2018-05-21T05:34:16.625Z,42.50
2018-05-21T05:35:52.956Z,42.51
2018-05-21T05:37:29.741Z,42.51
2018-05-21T05:39:08.367Z,42.52
2018-05-21T05:40:45.038Z,42.50
2018-05-21T05:42:21.960Z,42.48
2018-05-21T05:43:58.777Z,42.47
2018-05-21T05:45:35.467Z,42.45
2018-05-21T05:47:11.844Z,42.44
2018-05-21T05:48:48.160Z,42.42
2018-05-21T05:50:28.610Z,42.41
2018-05-21T05:52:05.014Z,42.41
2018-05-21T05:53:41.452Z,42.38
2018-05-21T05:55:18.355Z,42.35
2018-05-21T05:56:55.075Z,42.34
2018-05-21T05:58:31.746Z,42.34
2018-05-21T06:00:09.019Z,42.33
2018-05-21T06:01:45.729Z,42.32
2018-05-21T06:03:23.062Z,42.30
2018-05-21T06:04:59.587Z,42.29
2018-05-21T06:06:36.014Z,42.28
2018-05-21T06:08:12.403Z,42.28
2018-05-21T06:09:49.531Z,42.26
2018-05-21T06:11:27.118Z,42.25
2018-05-21T06:13:03.900Z,42.24
2018-05-21T06:14:40.282Z,42.22
2018-05-21T06:16:17.890Z,42.19
2018-05-21T06:17:54.223Z,42.17
2018-05-21T06:19:30.678Z,42.14
2018-05-21T06:21:07.261Z,42.11
2018-05-21T06:22:44.074Z,42.10
2018-05-21T06:24:21.372Z,42.09
2018-05-21T06:25:57.769Z,42.09
2018-05-21T06:27:34.147Z,42.08
2018-05-21T06:29:11.104Z,42.09
2018-05-21T06:30:48.122Z,42.08
2018-05-21T06:32:24.926Z,42.07
2018-05-21T06:34:01.297Z,42.06
2018-05-21T06:35:40.357Z,42.04
2018-05-21T06:37:17.812Z,42.02
2018-05-21T06:38:56.239Z,42.03
2018-05-21T06:40:34.403Z,42.01
2018-05-21T06:42:11.320Z,42.02
2018-05-21T06:43:48.229Z,42.03
2018-05-21T06:45:24.649Z,42.04
2018-05-21T06:47:01.118Z,42.03
2018-05-21T06:48:38.097Z,42.04
2018-05-21T06:50:14.675Z,42.05
2018-05-21T06:51:55.046Z,42.06
2018-05-21T06:53:32.403Z,42.07
2018-05-21T06:55:09.951Z,42.09
2018-05-21T06:56:46.236Z,42.12
2018-05-21T06:58:25.171Z,42.12
2018-05-21T07:00:01.633Z,42.12
2018-05-21T07:01:39.630Z,42.13
2018-05-21T07:03:17.091Z,42.14
2018-05-21T07:04:54.115Z,42.13
2018-05-21T07:06:30.515Z,42.13
2018-05-21T07:08:08.006Z,42.11
2018-05-21T07:09:44.316Z,42.11
2018-05-21T07:11:20.674Z,42.11
2018-05-21T07:12:57.002Z,42.10
2018-05-21T07:14:33.960Z,42.10
2018-05-21T07:16:10.558Z,42.10
2018-05-21T07:17:47.733Z,42.09
2018-05-21T07:19:24.887Z,42.08
2018-05-21T07:21:01.930Z,42.08
2018-05-21T07:22:38.226Z,42.08
2018-05-21T07:24:15.401Z,42.09
2018-05-21T07:25:51.754Z,42.09
2018-05-21T07:27:28.470Z,42.12
2018-05-21T07:29:05.643Z,42.12
2018-05-21T07:30:42.285Z,42.11
2018-05-21T07:32:18.542Z,42.13
2018-05-21T07:33:55.779Z,42.14
2018-05-21T07:35:32.806Z,42.17
2018-05-21T07:37:09.266Z,42.18
2018-05-21T07:38:46.610Z,42.19
2018-05-21T07:40:22.887Z,42.19
2018-05-21T07:41:59.427Z,42.18
2018-05-21T07:43:36.573Z,42.18
2018-05-21T07:45:13.576Z,42.17
2018-05-21T07:46:50.057Z,42.17
2018-05-21T07:48:26.892Z,42.16
2018-05-21T07:50:03.305Z,42.16
2018-05-21T07:51:40.106Z,42.15
2018-05-21T07:53:17.152Z,42.13
2018-05-21T07:54:54.615Z,42.13
2018-05-21T07:56:31.116Z,42.13
2018-05-21T07:58:08.033Z,42.13
2018-05-21T07:59:44.377Z,42.17
2018-05-21T08:01:21.597Z,42.14
2018-05-21T08:02:58.623Z,42.10
2018-05-21T08:04:36.740Z,42.05
2018-05-21T08:06:14.966Z,42.01
2018-05-21T08:07:51.595Z,42.03
2018-05-21T08:09:27.907Z,42.06
2018-05-21T08:11:05.526Z,42.03
2018-05-21T08:12:42.406Z,42.08
2018-05-21T08:14:18.875Z,42.04
2018-05-21T08:15:55.406Z,41.98
2018-05-21T08:17:32.686Z,41.96
2018-05-21T08:19:10.094Z,41.92
2018-05-21T08:20:46.403Z,41.88
2018-05-21T08:22:23.221Z,41.93
2018-05-21T08:23:59.964Z,41.91
2018-05-21T08:25:36.949Z,41.84
2018-05-21T08:27:14.090Z,41.83
2018-05-21T08:28:50.366Z,41.81
2018-05-21T08:30:27.081Z,41.79
2018-05-21T08:32:04.095Z,41.81
2018-05-21T08:33:40.401Z,41.75
2018-05-21T08:35:17.545Z,41.74
2018-05-21T08:36:54.427Z,41.72
2018-05-21T08:38:30.693Z,41.70
2018-05-21T08:40:07.123Z,41.70
2018-05-21T08:41:43.647Z,41.68
2018-05-21T08:43:21.305Z,41.68
2018-05-21T08:44:58.221Z,41.63
2018-05-21T08:46:34.574Z,41.60
2018-05-21T08:48:11.939Z,41.58
2018-05-21T08:49:48.875Z,41.55
2018-05-21T08:51:25.168Z,41.55
2018-05-21T08:53:02.281Z,41.52
2018-05-21T08:54:38.684Z,41.53
2018-05-21T08:56:15.559Z,41.52
2018-05-21T08:57:52.136Z,41.50
2018-05-21T08:59:28.570Z,41.48
2018-05-21T09:01:05.372Z,41.47
2018-05-21T09:02:42.878Z,41.44
2018-05-21T09:04:19.097Z,41.41
2018-05-21T09:05:56.004Z,41.39
2018-05-21T09:07:33.299Z,41.39
2018-05-21T09:09:11.865Z,41.36
2018-05-21T09:10:48.152Z,41.32
2018-05-21T09:12:25.413Z,41.28
2018-05-21T09:14:01.674Z,41.26
2018-05-21T09:15:38.671Z,41.25
2018-05-21T09:17:15.859Z,41.23
2018-05-21T09:18:53.017Z,41.22
2018-05-21T09:20:29.656Z,41.21
2018-05-21T09:22:06.902Z,41.20
2018-05-21T09:23:44.108Z,41.21
2018-05-21T09:25:20.432Z,41.18
2018-05-21T09:26:57.070Z,41.17
2018-05-21T09:28:33.777Z,41.16
2018-05-21T09:30:13.493Z,41.16
2018-05-21T09:31:49.883Z,41.15
2018-05-21T09:33:27.041Z,41.14
2018-05-21T09:35:03.704Z,41.11
2018-05-21T09:36:41.841Z,41.09
2018-05-21T09:38:19.585Z,41.10
2018-05-21T09:39:56.723Z,41.12
2018-05-21T09:41:33.836Z,41.10
2018-05-21T09:43:10.560Z,41.08
2018-05-21T09:44:47.694Z,41.06
2018-05-21T09:46:25.431Z,41.02
2018-05-21T09:48:02.327Z,41.03
2018-05-21T09:49:50.603Z,41.00
2018-05-21T09:51:27.158Z,40.99
2018-05-21T09:53:03.677Z,40.97
2018-05-21T09:54:40.505Z,40.98
2018-05-21T09:56:17.004Z,40.97
2018-05-21T09:57:53.631Z,40.96
2018-05-21T09:59:31.228Z,40.95
2018-05-21T10:01:08.375Z,40.93
2018-05-21T10:02:44.822Z,40.91
2018-05-21T10:04:21.140Z,40.92
2018-05-21T10:05:57.457Z,40.89
2018-05-21T10:07:34.133Z,40.86
2018-05-21T10:09:10.819Z,40.85
2018-05-21T10:10:47.245Z,40.87
2018-05-21T10:12:25.187Z,40.85
2018-05-21T10:14:02.447Z,40.81
2018-05-21T10:15:39.125Z,40.80
2018-05-21T10:17:15.506Z,40.79
2018-05-21T10:18:51.862Z,40.75
2018-05-21T10:20:28.594Z,40.74
2018-05-21T10:22:05.355Z,40.72
2018-05-21T10:23:42.120Z,40.71
2018-05-21T10:25:20.057Z,40.69
2018-05-21T10:26:56.455Z,40.68
2018-05-21T10:28:32.802Z,40.67
2018-05-21T10:30:18.582Z,40.65
2018-05-21T10:31:55.000Z,40.64
2018-05-21T10:33:32.481Z,40.58
2018-05-21T10:35:09.053Z,40.55
2018-05-21T10:36:45.810Z,40.55
2018-05-21T10:38:23.503Z,40.54
2018-05-21T10:40:01.023Z,40.54
2018-05-21T10:41:37.429Z,40.52
2018-05-21T10:43:14.292Z,40.52
2018-05-21T10:44:51.045Z,40.48
2018-05-21T10:46:28.216Z,40.46
2018-05-21T10:48:05.483Z,40.45
2018-05-21T10:49:42.706Z,40.45
2018-05-21T10:51:19.228Z,40.43
2018-05-21T10:52:55.897Z,40.42
2018-05-21T10:54:32.205Z,40.40
2018-05-21T10:56:08.654Z,40.38
2018-05-21T10:57:45.793Z,40.34
2018-05-21T10:59:22.929Z,40.33
2018-05-21T11:00:59.611Z,40.29
2018-05-21T11:02:35.897Z,40.27
2018-05-21T11:04:12.473Z,40.26
2018-05-21T11:05:49.336Z,40.23
2018-05-21T11:07:25.646Z,40.20
2018-05-21T11:09:02.006Z,40.20
2018-05-21T11:10:38.558Z,40.19
2018-05-21T11:12:14.890Z,40.17
2018-05-21T11:13:51.205Z,40.13
2018-05-21T11:15:27.958Z,40.10
2018-05-21T11:17:04.292Z,40.09
2018-05-21T11:18:41.014Z,40.07
2018-05-21T11:20:17.314Z,40.04
2018-05-21T11:21:54.373Z,40.02
2018-05-21T11:23:31.576Z,39.98
2018-05-21T11:25:08.457Z,39.95
2018-05-21T11:26:45.546Z,39.93
2018-05-21T11:28:22.989Z,39.92
2018-05-21T11:30:00.201Z,39.89
2018-05-21T11:31:38.026Z,39.89
2018-05-21T11:33:14.425Z,39.85
2018-05-21T11:34:50.784Z,39.81
2018-05-21T11:36:27.256Z,39.79
2018-05-21T11:38:04.148Z,39.79
2018-05-21T11:39:41.690Z,39.78
2018-05-21T11:41:18.588Z,39.74
2018-05-21T11:42:55.817Z,39.72
2018-05-21T11:44:32.520Z,39.68
2018-05-21T11:46:09.271Z,39.65
2018-05-21T11:47:45.661Z,39.65
2018-05-21T11:49:22.376Z,39.62
2018-05-21T11:51:00.068Z,39.60
2018-05-21T11:52:36.464Z,39.59
2018-05-21T11:54:12.857Z,39.57
2018-05-21T11:55:49.226Z,39.52
2018-05-21T11:57:25.822Z,39.51
2018-05-21T11:59:02.351Z,39.48
2018-05-21T12:00:39.159Z,39.43
2018-05-21T12:02:15.518Z,39.42
2018-05-21T12:03:53.137Z,39.38
2018-05-21T12:05:29.656Z,39.35
2018-05-21T12:07:06.102Z,39.31
2018-05-21T12:08:42.423Z,39.29
2018-05-21T12:10:20.288Z,39.26
2018-05-21T12:11:56.523Z,39.23
2018-05-21T12:13:33.722Z,39.20
2018-05-21T12:15:10.150Z,39.17
2018-05-21T12:16:47.934Z,39.17
2018-05-21T12:18:24.327Z,39.13
2018-05-21T12:20:00.665Z,39.10
2018-05-21T12:21:37.935Z,39.08
2018-05-21T12:23:15.159Z,39.05
2018-05-21T12:24:51.698Z,39.02
2018-05-21T12:26:28.389Z,38.99
2018-05-21T12:28:04.673Z,38.96
2018-05-21T12:29:43.548Z,38.92
2018-05-21T12:31:21.414Z,38.92
2018-05-21T12:32:58.079Z,38.88
2018-05-21T12:34:34.407Z,38.86
2018-05-21T12:36:11.282Z,38.84
2018-05-21T12:37:48.480Z,38.81
2018-05-21T12:39:25.139Z,38.77
2018-05-21T12:41:01.659Z,38.73
2018-05-21T12:42:39.806Z,38.70
2018-05-21T12:44:17.626Z,38.69
2018-05-21T12:45:55.677Z,38.63
2018-05-21T12:47:34.588Z,38.63
2018-05-21T12:49:23.366Z,38.59
2018-05-21T12:51:00.563Z,38.56
2018-05-21T12:52:38.571Z,38.52
2018-05-21T12:54:15.139Z,38.48
2018-05-21T12:55:51.951Z,38.46
2018-05-21T12:57:28.815Z,38.45
2018-05-21T12:59:05.324Z,38.42
2018-05-21T13:00:41.823Z,38.38
2018-05-21T13:02:18.294Z,38.36
2018-05-21T13:03:54.875Z,38.32
2018-05-21T13:05:31.574Z,38.29
2018-05-21T13:07:08.072Z,38.25
2018-05-21T13:08:44.911Z,38.21
2018-05-21T13:10:21.475Z,38.18
2018-05-21T13:11:58.343Z,38.14
2018-05-21T13:13:35.431Z,38.09
2018-05-21T13:15:13.852Z,38.05
2018-05-21T13:16:50.625Z,38.03
2018-05-21T13:18:28.342Z,38.00
2018-05-21T13:20:04.925Z,37.97
2018-05-21T13:21:42.402Z,37.95
2018-05-21T13:23:18.801Z,37.90
2018-05-21T13:24:55.158Z,37.87
2018-05-21T13:26:31.602Z,37.83
2018-05-21T13:28:08.113Z,37.82
2018-05-21T13:29:44.424Z,37.79
2018-05-21T13:31:21.881Z,37.75
2018-05-21T13:32:58.459Z,37.69
2018-05-21T13:34:35.329Z,37.66
2018-05-21T13:36:11.651Z,37.61
2018-05-21T13:37:48.772Z,37.58
2018-05-21T13:39:28.649Z,37.56
2018-05-21T13:41:05.785Z,37.54
2018-05-21T13:42:42.098Z,37.51
2018-05-21T13:44:19.242Z,37.48
2018-05-21T13:45:56.115Z,37.43
2018-05-21T13:47:34.101Z,37.38
2018-05-21T13:49:10.398Z,37.34
2018-05-21T13:50:47.898Z,37.29
2018-05-21T13:52:24.406Z,37.26
2018-05-21T13:54:01.961Z,37.24
2018-05-21T13:55:38.624Z,37.21
2018-05-21T13:57:14.939Z,37.17
2018-05-21T13:58:52.852Z,37.15
2018-05-21T14:00:29.885Z,37.11
2018-05-21T14:02:06.363Z,37.09
2018-05-21T14:03:44.085Z,37.07
2018-05-21T14:05:20.390Z,37.06
2018-05-21T14:06:58.570Z,37.02
2018-05-21T14:08:34.970Z,36.97
2018-05-21T14:10:11.945Z,36.96
2018-05-21T14:11:49.084Z,36.92
2018-05-21T14:13:26.280Z,36.89
2018-05-21T14:15:04.637Z,36.85
2018-05-21T14:16:41.065Z,36.83
2018-05-21T14:18:17.425Z,36.80
2018-05-21T14:19:54.222Z,36.76
2018-05-21T14:21:31.690Z,36.74
2018-05-21T14:23:08.208Z,36.71
2018-05-21T14:24:44.637Z,36.68
2018-05-21T14:26:21.350Z,36.64
2018-05-21T14:27:57.617Z,36.62
2018-05-21T14:29:34.060Z,36.59
2018-05-21T14:31:10.640Z,36.56
2018-05-21T14:32:49.028Z,36.55
2018-05-21T14:34:26.299Z,36.53
2018-05-21T14:36:03.169Z,36.51
2018-05-21T14:37:39.566Z,36.48
2018-05-21T14:39:15.901Z,36.44
2018-05-21T14:40:52.309Z,36.42
2018-05-21T14:42:29.067Z,36.39
2018-05-21T14:44:05.418Z,36.35
2018-05-21T14:45:42.732Z,36.33
2018-05-21T14:47:19.191Z,36.29
2018-05-21T14:49:03.946Z,36.29
2018-05-21T14:50:41.510Z,36.25
2018-05-21T14:52:18.190Z,36.24
2018-05-21T14:53:54.469Z,36.22
2018-05-21T14:55:30.980Z,36.18
2018-05-21T14:57:07.314Z,36.13
2018-05-21T14:58:45.656Z,36.13
2018-05-21T15:00:22.624Z,36.12
2018-05-21T15:02:00.332Z,36.08
2018-05-21T15:03:38.577Z,36.05
2018-05-21T15:05:16.030Z,36.03
2018-05-21T15:06:54.675Z,36.00
2018-05-21T15:08:31.435Z,35.97
2018-05-21T15:10:07.777Z,35.95
2018-05-21T15:11:45.409Z,35.92
2018-05-21T15:13:22.092Z,35.89
2018-05-21T15:14:58.406Z,35.88
2018-05-21T15:16:34.828Z,35.86
2018-05-21T15:18:11.699Z,35.84
2018-05-21T15:19:48.036Z,35.83
2018-05-21T15:21:24.495Z,35.81
2018-05-21T15:23:01.077Z,35.78
2018-05-21T15:24:38.027Z,35.76
2018-05-21T15:26:15.225Z,35.74
2018-05-21T15:27:51.599Z,35.72
2018-05-21T15:29:28.975Z,35.72
2018-05-21T15:31:07.206Z,35.70
2018-05-21T15:32:44.381Z,35.67
2018-05-21T15:34:20.836Z,35.65
2018-05-21T15:35:57.226Z,35.62
2018-05-21T15:37:37.529Z,35.61
2018-05-21T15:39:13.891Z,35.61
2018-05-21T15:40:50.275Z,35.59
2018-05-21T15:42:27.534Z,35.58
2018-05-21T15:44:04.539Z,35.54
2018-05-21T15:45:43.462Z,35.52
2018-05-21T15:48:51.929Z,35.48
2018-05-21T15:50:29.631Z,35.49
2018-05-21T15:52:06.863Z,35.49
2018-05-21T15:53:43.217Z,35.51
2018-05-21T15:55:19.721Z,35.49
2018-05-21T15:56:57.322Z,35.45
2018-05-21T15:58:34.569Z,35.43
2018-05-21T16:00:10.976Z,35.41
2018-05-21T16:01:47.322Z,35.40
2018-05-21T16:03:24.713Z,35.38
2018-05-21T16:05:01.049Z,35.37
2018-05-21T16:06:37.517Z,35.36
2018-05-21T16:08:13.815Z,35.31
2018-05-21T16:09:50.662Z,35.29
2018-05-21T16:11:27.225Z,35.29
2018-05-21T16:13:03.564Z,35.28
2018-05-21T16:14:39.841Z,35.26
2018-05-21T16:16:16.734Z,35.24
2018-05-21T16:17:53.848Z,35.23
2018-05-21T16:19:31.143Z,35.21
2018-05-21T16:21:07.446Z,35.22
2018-05-21T16:22:44.669Z,35.20
2018-05-21T16:24:21.006Z,35.17
2018-05-21T16:25:57.310Z,35.16
2018-05-21T16:27:33.851Z,35.18
2018-05-21T16:29:10.598Z,35.17
2018-05-21T16:30:47.915Z,35.15
2018-05-21T16:32:24.299Z,35.14
2018-05-21T16:34:00.718Z,35.13
2018-05-21T16:35:37.659Z,35.11
2018-05-21T16:37:14.741Z,35.09
2018-05-21T16:38:51.176Z,35.07
2018-05-21T16:40:27.628Z,35.06
2018-05-21T16:42:05.220Z,35.06
2018-05-21T16:43:41.543Z,35.05
2018-05-21T16:45:19.585Z,35.03
2018-05-21T16:46:56.053Z,35.02
2018-05-21T16:48:33.090Z,35.02
2018-05-21T16:50:09.946Z,35.02
2018-05-21T16:51:46.965Z,35.00
2018-05-21T16:53:23.471Z,35.00
2018-05-21T16:55:01.069Z,34.99
2018-05-21T16:56:37.409Z,34.98
2018-05-21T16:58:13.860Z,34.96
2018-05-21T16:59:50.161Z,34.98
2018-05-21T17:01:27.247Z,34.97
2018-05-21T17:03:03.630Z,34.98
2018-05-21T17:04:40.751Z,34.96
2018-05-21T17:06:17.113Z,34.94
2018-05-21T17:07:54.349Z,34.92
2018-05-21T17:09:31.765Z,34.91
2018-05-21T17:11:08.167Z,34.90
2018-05-21T17:12:44.586Z,34.90
2018-05-21T17:14:21.318Z,34.88
2018-05-21T17:15:58.076Z,34.87
2018-05-21T17:17:34.862Z,34.85
2018-05-21T17:19:12.418Z,34.83
2018-05-21T17:20:49.264Z,34.82
2018-05-21T17:22:26.048Z,34.81
2018-05-21T17:24:02.577Z,34.81
2018-05-21T17:25:39.800Z,34.80
2018-05-21T17:27:16.594Z,34.79
2018-05-21T17:28:53.913Z,34.79
2018-05-21T17:30:30.674Z,34.77
2018-05-21T17:32:07.021Z,34.76
2018-05-21T17:33:44.554Z,34.75
2018-05-21T17:35:21.740Z,34.73
2018-05-21T17:36:59.687Z,34.71
2018-05-21T17:38:36.357Z,34.71
2018-05-21T17:40:12.979Z,34.70
2018-05-21T17:41:50.173Z,34.69
2018-05-21T17:43:26.478Z,34.68
2018-05-21T17:45:02.775Z,34.67
2018-05-21T17:46:40.746Z,34.65
2018-05-21T17:48:17.064Z,34.65
2018-05-21T17:49:53.693Z,34.64
2018-05-21T17:51:31.474Z,34.64
2018-05-21T17:53:08.105Z,34.64
2018-05-21T17:54:44.501Z,34.63
2018-05-21T17:56:22.522Z,34.63
2018-05-21T17:57:59.585Z,34.64
2018-05-21T17:59:36.638Z,34.63
2018-05-21T18:01:13.400Z,34.63
2018-05-21T18:02:49.800Z,34.61
2018-05-21T18:04:26.229Z,34.60
2018-05-21T18:06:02.944Z,34.61
2018-05-21T18:07:39.669Z,34.59
2018-05-21T18:09:15.991Z,34.58
2018-05-21T18:10:53.181Z,34.58
2018-05-21T18:12:29.897Z,34.58
2018-05-21T18:14:06.497Z,34.59
2018-05-21T18:15:43.895Z,34.59
2018-05-21T18:17:28.132Z,34.58
2018-05-21T18:19:05.624Z,34.59
2018-05-21T18:20:43.138Z,34.57
2018-05-21T18:22:19.914Z,34.57
2018-05-21T18:23:57.786Z,34.56
2018-05-21T18:25:35.909Z,34.56
2018-05-21T18:27:13.373Z,34.54
2018-05-21T18:28:50.403Z,34.53
2018-05-21T18:30:28.598Z,34.51
2018-05-21T18:32:06.228Z,34.52
2018-05-21T18:33:43.946Z,34.51
2018-05-21T18:35:21.200Z,34.50
2018-05-21T18:36:57.577Z,34.50
2018-05-21T18:38:34.556Z,34.50
2018-05-21T18:40:11.013Z,34.49
2018-05-21T18:41:48.271Z,34.48
2018-05-21T18:43:24.584Z,34.48
2018-05-21T18:45:01.347Z,34.48
2018-05-21T18:46:38.457Z,34.48
2018-05-21T18:48:14.757Z,34.47
2018-05-21T18:49:51.875Z,34.47
2018-05-21T18:51:28.789Z,34.47
2018-05-21T18:53:05.196Z,34.47
2018-05-21T18:54:42.222Z,34.46
2018-05-21T18:56:19.426Z,34.44
2018-05-21T18:57:58.195Z,34.47
2018-05-21T18:59:35.517Z,34.48
2018-05-21T19:01:13.486Z,34.47
2018-05-21T19:02:50.737Z,34.46
2018-05-21T19:04:27.387Z,34.47
2018-05-21T19:06:09.389Z,34.47
2018-05-21T19:07:46.079Z,34.47
2018-05-21T19:09:22.616Z,34.46
2018-05-21T19:11:00.214Z,34.47
2018-05-21T19:12:36.749Z,34.47
2018-05-21T19:14:13.161Z,34.46
2018-05-21T19:15:49.866Z,34.47
2018-05-21T19:17:27.601Z,34.46
2018-05-21T19:19:03.937Z,34.46
2018-05-21T19:20:40.497Z,34.45
2018-05-21T19:22:17.113Z,34.43
2018-05-21T19:23:53.882Z,34.43
2018-05-21T19:25:30.185Z,34.42
2018-05-21T19:27:07.293Z,34.43
2018-05-21T19:28:45.271Z,34.41
2018-05-21T19:30:23.646Z,34.41
2018-05-21T19:32:00.200Z,34.41
2018-05-21T19:33:36.937Z,34.41
2018-05-21T19:35:13.294Z,34.41
2018-05-21T19:36:50.074Z,34.41
2018-05-21T19:38:26.760Z,34.39
2018-05-21T19:40:03.191Z,34.38
2018-05-21T19:41:39.717Z,34.37
2018-05-21T19:43:16.541Z,34.36
2018-05-21T19:44:52.927Z,34.34
2018-05-21T19:46:29.698Z,34.34
2018-05-21T19:48:06.149Z,34.34
2018-05-21T19:49:42.541Z,34.34
2018-05-21T19:51:19.031Z,34.34
2018-05-21T19:52:55.541Z,34.34
2018-05-21T19:54:32.044Z,34.35
2018-05-21T19:56:08.888Z,34.34
2018-05-21T19:57:45.335Z,34.34
2018-05-21T19:59:21.755Z,34.34
2018-05-21T20:00:58.404Z,34.35
2018-05-21T20:02:35.999Z,34.33
2018-05-21T20:04:12.405Z,34.33
2018-05-21T20:05:49.285Z,34.32
2018-05-21T20:07:25.740Z,34.34
2018-05-21T20:09:02.567Z,34.32
2018-05-21T20:10:39.255Z,34.31
2018-05-21T20:12:15.690Z,34.30
2018-05-21T20:13:53.105Z,34.30
2018-05-21T20:15:30.177Z,34.31
2018-05-21T20:17:06.714Z,34.31
2018-05-21T20:18:43.106Z,34.31
2018-05-21T20:20:24.551Z,34.32
2018-05-21T20:22:01.408Z,34.30
2018-05-21T20:23:38.864Z,34.29
2018-05-21T20:25:15.204Z,34.27
2018-05-21T20:26:51.550Z,34.21
2018-05-21T20:28:28.499Z,34.17
2018-05-21T20:30:05.015Z,34.14
2018-05-21T20:31:41.663Z,34.13
2018-05-21T20:33:18.036Z,34.13
2018-05-21T20:34:55.312Z,34.13
2018-05-21T20:36:31.859Z,34.13
2018-05-21T20:38:08.272Z,34.11
2018-05-21T20:39:45.043Z,34.12
2018-05-21T20:41:22.663Z,34.14
2018-05-21T20:43:00.032Z,34.17
2018-05-21T20:44:36.554Z,34.17
2018-05-21T20:46:13.142Z,34.18
2018-05-21T20:47:50.297Z,34.20
2018-05-21T20:49:26.683Z,34.21
2018-05-21T20:51:03.380Z,34.23
2018-05-21T20:52:40.638Z,34.25
2018-05-21T20:54:18.282Z,34.26
2018-05-21T20:55:54.691Z,34.31
2018-05-21T20:57:31.241Z,34.32